Time;durP1;ratioP1;P1;durP2;ratioP2;P2;SDS_P1;SDS_P2;PMS_P1;PMS_P2;Temp;Humidity;BMP_temperature;BMP_pressure;BME280_temperature;BME280_humidity;BME280_pressure;Samples;Min_cycle;Max_cycle;Signal;HPM_P1;HPM_P2
2023/04/16 00:02:03;;;;;;;738.03;686.97;;;7.60;99.90;;;;;;6219119;23;20412;-79
2023/04/16 00:04:31;;;;;;;749.13;694.83;;;7.60;99.90;;;;;;6245523;22;20976;-78
2023/04/16 00:06:58;;;;;;;743.30;688.00;;;7.50;99.90;;;;;;6245301;23;20418;-79
2023/04/16 00:09:25;;;;;;;752.50;695.07;;;7.50;99.90;;;;;;6245123;23;20965;-79
2023/04/16 00:11:52;;;;;;;760.13;702.73;;;7.60;99.90;;;;;;6226209;23;20764;-79
2023/04/16 00:14:19;;;;;;;758.00;703.03;;;7.60;99.90;;;;;;6245372;22;20962;-79
2023/04/16 00:16:46;;;;;;;744.57;693.70;;;7.70;99.90;;;;;;6243599;23;20419;-79
2023/04/16 00:19:13;;;;;;;745.43;696.07;;;7.60;99.90;;;;;;6245809;22;20411;-79
2023/04/16 00:21:41;;;;;;;747.60;696.10;;;7.60;99.90;;;;;;6244843;23;20416;-79
2023/04/16 00:24:08;;;;;;;751.53;701.73;;;7.60;99.90;;;;;;6245385;22;20506;-79
2023/04/16 00:26:35;;;;;;;751.40;700.87;;;7.70;99.90;;;;;;6245046;22;20422;-79
2023/04/16 00:29:02;;;;;;;750.30;697.87;;;7.60;99.90;;;;;;6245522;23;20419;-79
2023/04/16 00:31:31;;;;;;;764.50;710.80;;;7.70;99.90;;;;;;6245316;23;20462;-79
2023/04/16 00:33:58;;;;;;;765.07;708.10;;;7.80;99.90;;;;;;6244785;22;21117;-78
2023/04/16 00:36:26;;;;;;;762.70;707.10;;;7.60;99.90;;;;;;6245586;23;20794;-79
2023/04/16 00:38:55;;;;;;;765.67;708.00;;;7.60;99.90;;;;;;6245469;23;20411;-79
2023/04/16 00:41:23;;;;;;;773.10;712.80;;;7.60;99.90;;;;;;6245503;23;20417;-79
2023/04/16 00:43:50;;;;;;;771.80;711.60;;;7.70;99.90;;;;;;6243331;22;20431;-79
2023/04/16 00:46:18;;;;;;;778.50;717.60;;;7.70;99.90;;;;;;6245074;23;20450;-79
2023/04/16 00:48:46;;;;;;;773.20;715.00;;;7.70;99.90;;;;;;6245333;23;20415;-79
2023/04/16 00:51:13;;;;;;;774.07;714.77;;;7.60;99.90;;;;;;6245585;23;20741;-79
2023/04/16 00:53:40;;;;;;;775.97;715.70;;;7.70;99.90;;;;;;6243183;22;20837;-79
2023/04/16 00:56:09;;;;;;;770.70;708.80;;;7.70;99.90;;;;;;6245372;23;20415;-79
2023/04/16 00:58:36;;;;;;;774.07;712.07;;;7.80;99.90;;;;;;6245345;23;20417;-79
2023/04/16 01:01:03;;;;;;;767.53;704.37;;;7.70;99.90;;;;;;6245550;23;20712;-79
2023/04/16 01:03:38;;;;;;;769.80;708.20;;;7.80;99.90;;;;;;6245338;22;20766;-79
2023/04/16 01:06:05;;;;;;;776.50;713.00;;;7.80;99.90;;;;;;6245068;23;20607;-79
2023/04/16 01:08:33;;;;;;;768.23;707.90;;;7.80;99.90;;;;;;6245656;23;20809;-79
2023/04/16 01:10:59;;;;;;;769.27;707.63;;;7.80;99.90;;;;;;6245315;22;20411;-80
2023/04/16 01:13:28;;;;;;;780.90;714.93;;;7.70;99.90;;;;;;6245039;22;20522;-79
2023/04/16 01:15:55;;;;;;;771.90;705.33;;;7.70;99.90;;;;;;6245070;23;20782;-79
2023/04/16 01:18:22;;;;;;;777.83;713.37;;;7.80;99.90;;;;;;6244574;23;20921;-79
2023/04/16 01:20:51;;;;;;;772.07;708.27;;;7.80;99.90;;;;;;6244397;23;20418;-79
2023/04/16 01:23:18;;;;;;;765.57;701.40;;;7.90;99.90;;;;;;6244858;22;20510;-79
2023/04/16 01:25:45;;;;;;;774.37;708.13;;;7.90;99.90;;;;;;6245034;23;20422;-78
2023/04/16 01:28:13;;;;;;;785.33;720.83;;;7.80;99.90;;;;;;6245174;23;20411;-79
2023/04/16 01:30:40;;;;;;;786.17;721.17;;;7.80;99.90;;;;;;6245335;23;20411;-79
2023/04/16 01:33:07;;;;;;;780.57;715.60;;;7.70;99.90;;;;;;6244603;22;20435;-79
2023/04/16 01:35:34;;;;;;;784.23;716.70;;;7.80;99.90;;;;;;6244444;23;20958;-79
2023/04/16 01:38:03;;;;;;;784.73;714.13;;;7.80;99.90;;;;;;6244775;23;20788;-79
2023/04/16 01:40:30;;;;;;;775.90;710.70;;;7.80;99.90;;;;;;6245315;23;20411;-78
2023/04/16 01:42:56;;;;;;;785.70;719.00;;;7.90;99.90;;;;;;6244387;22;20461;-79
2023/04/16 01:45:23;;;;;;;783.23;717.30;;;7.90;99.90;;;;;;6244783;23;20413;-79
2023/04/16 01:47:51;;;;;;;785.63;719.33;;;7.80;99.90;;;;;;6245052;23;20498;-78
2023/04/16 01:50:18;;;;;;;773.60;710.83;;;7.80;99.90;;;;;;6245152;23;20437;-79
2023/04/16 01:52:45;;;;;;;775.20;711.10;;;7.80;99.90;;;;;;6244814;22;20899;-78
2023/04/16 01:55:14;;;;;;;785.30;722.23;;;7.90;99.90;;;;;;6193111;23;20437;-79
2023/04/16 01:57:45;;;;;;;763.43;707.77;;;7.80;99.90;;;;;;6245095;23;20415;-79
2023/04/16 02:00:12;;;;;;;757.40;704.40;;;7.90;99.90;;;;;;6245042;23;20395;-79
2023/04/16 02:02:40;;;;;;;726.87;680.17;;;7.90;99.90;;;;;;6244971;22;20433;-79
2023/04/16 02:05:08;;;;;;;747.50;695.30;;;7.80;99.90;;;;;;6244850;23;20490;-79
2023/04/16 02:07:35;;;;;;;739.40;687.33;;;7.90;99.90;;;;;;6244611;23;20816;-80
2023/04/16 02:10:03;;;;;;;761.97;707.07;;;7.90;99.90;;;;;;6244450;23;20417;-79
2023/04/16 02:12:31;;;;;;;752.63;700.67;;;7.80;99.90;;;;;;6244554;22;20419;-79
2023/04/16 02:14:58;;;;;;;745.37;695.17;;;7.80;99.90;;;;;;6244674;22;20445;-79
2023/04/16 02:17:25;;;;;;;760.27;705.90;;;7.80;99.90;;;;;;6217649;23;20422;-79
2023/04/16 02:19:52;;;;;;;756.63;701.00;;;7.90;99.90;;;;;;6218327;23;20411;-79
2023/04/16 02:22:19;;;;;;;767.57;715.50;;;7.80;99.90;;;;;;6245009;23;20411;-79
2023/04/16 02:24:46;;;;;;;764.57;711.10;;;7.80;99.90;;;;;;6244491;22;20441;-79
2023/04/16 02:27:13;;;;;;;748.07;697.57;;;7.70;99.90;;;;;;6218512;23;20753;-79
2023/04/16 02:29:41;;;;;;;737.73;687.57;;;7.90;99.90;;;;;;6217246;23;20494;-79
2023/04/16 02:32:08;;;;;;;714.17;666.87;;;7.90;99.90;;;;;;6244108;23;20929;-79
2023/04/16 02:34:38;;;;;;;763.07;710.37;;;7.80;99.90;;;;;;6244031;22;20522;-79
2023/04/16 02:37:06;;;;;;;751.03;701.23;;;7.90;99.90;;;;;;6244380;23;20430;-79
2023/04/16 02:39:32;;;;;;;754.00;702.63;;;7.80;99.90;;;;;;6217581;23;20477;-79
2023/04/16 02:42:01;;;;;;;732.40;684.40;;;7.80;99.90;;;;;;6217507;23;20907;-79
2023/04/16 02:44:28;;;;;;;740.80;693.80;;;7.80;99.90;;;;;;6244323;22;20919;-79
2023/04/16 02:46:56;;;;;;;763.67;710.67;;;7.90;99.90;;;;;;6244177;23;20410;-79
2023/04/16 02:49:23;;;;;;;744.67;690.67;;;7.90;99.90;;;;;;6243369;23;20422;-79
2023/04/16 02:51:59;;;;;;;750.67;696.67;;;7.80;99.90;;;;;;6244502;23;20411;-79
2023/04/16 02:54:26;;;;;;;733.40;684.33;;;7.80;99.90;;;;;;6243836;22;20442;-79
2023/04/16 02:56:53;;;;;;;726.20;677.63;;;7.90;99.90;;;;;;6245704;23;20422;-79
2023/04/16 02:59:20;;;;;;;729.37;680.07;;;7.80;99.90;;;;;;6246505;23;20415;-79
2023/04/16 03:01:48;;;;;;;747.40;695.50;;;7.80;99.90;;;;;;6246353;23;20439;-80
2023/04/16 03:04:16;;;;;;;751.33;698.70;;;7.90;99.90;;;;;;6246147;22;20435;-80
2023/04/16 03:06:43;;;;;;;729.57;679.57;;;7.90;99.90;;;;;;6246017;23;20415;-79
2023/04/16 03:09:10;;;;;;;690.77;647.73;;;7.90;99.90;;;;;;6245749;23;20407;-79
2023/04/16 03:11:37;;;;;;;705.53;658.63;;;7.80;99.90;;;;;;6223067;23;20430;-79
2023/04/16 03:14:04;;;;;;;713.40;665.93;;;7.80;99.90;;;;;;6243990;22;20435;-79
2023/04/16 03:16:31;;;;;;;735.90;685.33;;;7.80;99.90;;;;;;6244678;23;20410;-79
2023/04/16 03:19:00;;;;;;;748.53;695.20;;;7.90;99.90;;;;;;6245631;23;20414;-79
2023/04/16 03:21:29;;;;;;;728.43;676.47;;;8.00;99.90;;;;;;6245974;23;20450;-79
2023/04/16 03:23:56;;;;;;;718.83;671.23;;;7.90;99.90;;;;;;6246110;22;20895;-79
2023/04/16 03:26:25;;;;;;;715.03;669.23;;;7.80;99.90;;;;;;6245630;23;20413;-79
2023/04/16 03:28:52;;;;;;;756.03;702.67;;;7.90;99.90;;;;;;6245877;22;20417;-80
2023/04/16 03:31:36;;;;;;;737.73;686.37;;;7.90;99.90;;;;;;6244733;23;20429;-79
2023/04/16 03:34:03;;;;;;;751.20;696.67;;;7.80;99.90;;;;;;6245575;22;20435;-79
2023/04/16 03:36:31;;;;;;;761.03;704.13;;;7.80;99.90;;;;;;6243858;23;20442;-79
2023/04/16 03:38:58;;;;;;;745.83;689.97;;;7.80;99.90;;;;;;6246145;23;20494;-79
2023/04/16 03:41:25;;;;;;;745.43;690.30;;;7.90;99.90;;;;;;6245914;23;20443;-79
2023/04/16 03:43:52;;;;;;;756.00;701.60;;;7.80;99.90;;;;;;6244429;22;20439;-79
2023/04/16 03:46:18;;;;;;;755.07;701.43;;;7.90;99.90;;;;;;6245934;23;20406;-79
2023/04/16 03:48:45;;;;;;;737.67;685.10;;;7.90;99.90;;;;;;6246014;23;20415;-79
2023/04/16 03:51:12;;;;;;;737.67;683.10;;;7.80;99.90;;;;;;6245921;23;20415;-79
2023/04/16 03:53:41;;;;;;;743.57;687.30;;;7.90;99.90;;;;;;6245387;22;20435;-79
2023/04/16 03:56:07;;;;;;;758.20;699.40;;;7.90;99.90;;;;;;6244645;22;20426;-79
2023/04/16 03:58:34;;;;;;;737.57;680.87;;;7.70;99.90;;;;;;6245027;23;20490;-79
2023/04/16 04:01:01;;;;;;;737.50;683.43;;;7.80;99.90;;;;;;6245941;23;20411;-79
2023/04/16 04:03:28;;;;;;;735.73;682.77;;;7.90;99.90;;;;;;6244921;22;20438;-79
2023/04/16 04:05:55;;;;;;;701.77;658.97;;;7.80;99.90;;;;;;6243432;23;20407;-79
2023/04/16 04:08:22;;;;;;;736.90;684.70;;;7.80;99.90;;;;;;6243095;23;20470;-79
2023/04/16 04:10:50;;;;;;;718.50;667.20;;;7.80;99.90;;;;;;6245693;23;20494;-79
2023/04/16 04:13:17;;;;;;;716.67;666.87;;;7.80;99.90;;;;;;6245205;22;20444;-79
2023/04/16 04:15:44;;;;;;;734.87;680.97;;;7.80;99.90;;;;;;6245008;23;20442;-79
2023/04/16 04:18:11;;;;;;;723.50;668.50;;;7.80;99.90;;;;;;6245723;23;20809;-79
2023/04/16 04:20:41;;;;;;;712.07;663.37;;;7.90;99.90;;;;;;6245421;23;20421;-80
2023/04/16 04:23:08;;;;;;;722.77;671.53;;;7.90;99.90;;;;;;6244984;22;20514;-79
2023/04/16 04:25:35;;;;;;;726.23;673.07;;;7.80;99.90;;;;;;6245221;23;20417;-79
2023/04/16 04:28:15;;;;;;;727.37;673.67;;;7.80;99.90;;;;;;6245599;23;20422;-79
2023/04/16 04:30:42;;;;;;;742.10;678.00;;;8.00;99.90;;;;;;6255318;23;20472;-79
2023/04/16 04:33:17;;;;;;;736.50;676.10;;;7.80;99.90;;;;;;6244971;22;20435;-79
2023/04/16 04:35:44;;;;;;;746.53;682.17;;;7.90;99.90;;;;;;6244652;23;20946;-79
2023/04/16 04:38:10;;;;;;;746.47;683.20;;;7.90;99.90;;;;;;6244976;23;20412;-78
2023/04/16 04:40:37;;;;;;;754.10;687.20;;;7.90;99.90;;;;;;6245500;23;20486;-79
2023/04/16 04:43:04;;;;;;;749.00;686.97;;;7.90;99.90;;;;;;6218062;23;20470;-79
2023/04/16 04:45:35;;;;;;;749.33;687.20;;;7.90;99.90;;;;;;6244773;23;20407;-79
2023/04/16 04:48:02;;;;;;;711.67;655.27;;;7.90;99.90;;;;;;6245367;23;20454;-79
2023/04/16 04:50:29;;;;;;;706.27;651.37;;;7.90;99.90;;;;;;6245439;23;20412;-79
2023/04/16 04:52:56;;;;;;;716.33;657.73;;;7.90;99.90;;;;;;6245339;23;22148;-79
2023/04/16 04:55:23;;;;;;;716.63;659.97;;;7.90;99.90;;;;;;6244893;23;20873;-79
2023/04/16 04:57:50;;;;;;;706.90;651.20;;;7.80;99.90;;;;;;6245620;23;20422;-79
2023/04/16 05:00:22;;;;;;;689.47;637.37;;;7.90;99.90;;;;;;6245142;23;20421;-79
2023/04/16 05:02:54;;;;;;;700.10;643.80;;;7.90;99.90;;;;;;6244919;22;20490;-80
2023/04/16 05:05:23;;;;;;;689.53;637.27;;;7.90;99.90;;;;;;6244622;23;20391;-79
2023/04/16 05:08:09;;;;;;;702.50;648.80;;;8.00;99.90;;;;;;6244877;23;20415;-80
2023/04/16 05:10:41;;;;;;;688.40;635.60;;;7.90;99.90;;;;;;6245181;23;20406;-80
2023/04/16 05:13:08;;;;;;;677.07;628.37;;;8.00;99.90;;;;;;6243840;22;20445;-79
2023/04/16 05:19:14;;;;;;;685.53;634.30;;;8.00;99.90;;;;;;6185440;23;20895;-80
2023/04/16 05:22:41;;;;;;;697.50;641.43;;;8.00;99.90;;;;;;6254671;23;20419;-79
2023/04/16 05:45:54;;;;;;;653.00;615.70;;;8.10;99.90;;;;;;6193275;22;1603291;-79
2023/04/16 05:48:21;;;;;;;692.73;643.57;;;8.10;99.90;;;;;;6222489;23;20161;-79
2023/04/16 05:53:39;;;;;;;705.77;654.37;;;8.20;99.90;;;;;;6221563;23;20451;-80
2023/04/16 05:59:50;;;;;;;696.53;648.17;;;8.20;99.90;;;;;;6215964;23;20402;-78
2023/04/16 06:02:31;;;;;;;707.03;657.43;;;8.30;99.90;;;;;;6206126;23;20502;-80
2023/04/16 06:04:58;;;;;;;704.10;656.03;;;8.20;99.90;;;;;;6230777;22;20514;-79
2023/04/16 06:07:25;;;;;;;719.33;666.87;;;8.20;99.90;;;;;;6221112;23;20497;-80
2023/04/16 06:09:52;;;;;;;702.83;653.93;;;8.20;99.90;;;;;;6221689;23;20416;-79
2023/04/16 06:12:19;;;;;;;717.23;666.57;;;8.30;99.90;;;;;;6222127;23;20411;-80
2023/04/16 06:14:46;;;;;;;700.23;652.13;;;8.20;99.90;;;;;;6222056;23;21034;-79
2023/04/16 06:17:13;;;;;;;705.80;655.80;;;8.20;99.90;;;;;;6222306;23;20415;-79
2023/04/16 06:19:41;;;;;;;695.43;646.00;;;8.20;99.90;;;;;;6220325;23;20416;-79
2023/04/16 06:22:37;;;;;;;701.67;651.67;;;8.30;99.90;;;;;;6222292;23;20415;-80
2023/04/16 06:25:04;;;;;;;702.60;653.40;;;8.30;99.90;;;;;;6196631;23;20563;-79
2023/04/16 06:27:31;;;;;;;693.27;642.57;;;8.30;99.90;;;;;;6221070;23;20415;-79
2023/04/16 06:29:58;;;;;;;696.10;646.20;;;8.10;99.90;;;;;;6222534;23;20742;-79
2023/04/16 06:32:25;;;;;;;695.43;646.53;;;8.30;99.90;;;;;;6222423;23;20412;-80
2023/04/16 06:34:55;;;;;;;710.73;660.10;;;8.20;99.90;;;;;;6222213;23;20442;-79
2023/04/16 06:44:00;;;;;;;690.50;643.07;;;8.30;99.90;;;;;;6211332;23;20419;-79
2023/04/16 06:46:27;;;;;;;723.17;669.83;;;8.30;99.90;;;;;;6224983;23;20430;-81
2023/04/16 06:48:54;;;;;;;691.77;642.77;;;8.20;99.90;;;;;;6215612;23;20447;-81
2023/04/16 06:51:23;;;;;;;691.10;642.40;;;8.30;99.90;;;;;;6216071;23;20439;-81
2023/04/16 06:53:50;;;;;;;695.50;648.90;;;8.30;99.90;;;;;;6213723;23;20765;-81
2023/04/16 06:56:17;;;;;;;688.23;639.67;;;8.30;99.90;;;;;;6215659;23;20503;-80
2023/04/16 06:58:44;;;;;;;684.80;636.80;;;8.30;99.90;;;;;;6212037;23;20419;-80
2023/04/16 07:01:57;;;;;;;666.87;620.00;;;8.20;99.90;;;;;;6215145;23;20429;-80
2023/04/16 07:04:24;;;;;;;658.87;614.73;;;8.40;99.90;;;;;;6199202;23;20470;-80
2023/04/16 07:12:42;;;;;;;613.00;572.27;;;8.40;99.90;;;;;;6207952;23;20501;-79
2023/04/16 07:15:13;;;;;;;580.97;547.17;;;8.30;99.90;;;;;;6184300;23;20427;-79
2023/04/16 07:17:40;;;;;;;599.33;560.80;;;8.30;99.90;;;;;;6159196;23;20421;-80
2023/04/16 07:20:28;;;;;;;584.70;549.43;;;8.30;99.90;;;;;;6184253;23;20424;-79
2023/04/16 07:22:56;;;;;;;613.27;571.37;;;8.30;99.90;;;;;;6184282;23;20485;-79
2023/04/16 07:25:25;;;;;;;593.33;555.33;;;8.40;99.90;;;;;;6184717;23;20455;-79
2023/04/16 07:27:55;;;;;;;592.93;555.90;;;8.50;99.90;;;;;;6184997;23;20413;-79
2023/04/16 07:30:22;;;;;;;619.67;576.67;;;8.50;99.90;;;;;;6185032;23;20417;-80
2023/04/16 07:32:50;;;;;;;626.87;582.83;;;8.50;99.90;;;;;;6184348;23;20421;-79
2023/04/16 07:38:47;;;;;;;610.27;569.77;;;8.50;99.90;;;;;;6083465;23;20748;-79
2023/04/16 07:41:14;;;;;;;602.17;564.27;;;8.60;99.90;;;;;;6091357;23;20455;-79
2023/04/16 07:44:46;;;;;;;613.97;572.17;;;8.50;99.90;;;;;;6067172;23;20463;-79
2023/04/16 07:50:42;;;;;;;601.90;563.00;;;8.70;99.90;;;;;;6051049;23;20403;-79
2023/04/16 07:53:27;;;;;;;601.43;561.93;;;8.70;99.90;;;;;;6184374;23;20479;-79
2023/04/16 07:56:00;;;;;;;616.30;574.10;;;8.70;99.90;;;;;;6183403;23;20397;-78
2023/04/16 07:58:29;;;;;;;591.60;551.37;;;8.70;99.90;;;;;;6179306;23;20413;-79
2023/04/16 08:00:56;;;;;;;604.97;564.23;;;8.80;99.90;;;;;;6192923;23;20876;-79
2023/04/16 08:03:23;;;;;;;609.23;568.20;;;8.90;99.90;;;;;;6183336;23;20435;-79
2023/04/16 08:08:49;;;;;;;617.80;574.60;;;8.80;99.90;;;;;;6174759;23;20727;-80
2023/04/16 08:11:22;;;;;;;596.87;557.67;;;8.90;99.90;;;;;;6184327;23;20424;-79
2023/04/16 08:14:35;;;;;;;617.43;576.73;;;8.90;99.90;;;;;;6183368;23;20447;-82
2023/04/16 08:19:44;;;;;;;579.87;544.00;;;8.80;99.90;;;;;;6175090;23;20492;-77
2023/04/16 08:25:38;;;;;;;555.60;522.90;;;9.10;99.90;;;;;;6073369;23;20405;-80
2023/04/16 08:28:05;;;;;;;527.03;495.73;;;9.10;99.90;;;;;;6137219;23;20795;-80
2023/04/16 08:31:06;;;;;;;513.83;483.23;;;9.20;99.90;;;;;;6154090;23;20424;-80
2023/04/16 08:33:33;;;;;;;497.03;469.83;;;9.20;99.90;;;;;;6138760;23;20438;-79
2023/04/16 08:36:00;;;;;;;518.13;488.47;;;9.20;99.90;;;;;;6154291;23;20752;-80
2023/04/16 08:38:27;;;;;;;457.97;432.50;;;9.20;99.90;;;;;;6153943;23;20413;-80
2023/04/16 08:41:12;;;;;;;480.73;455.13;;;9.20;99.90;;;;;;6127365;23;20418;-80
2023/04/16 08:43:45;;;;;;;434.63;411.40;;;9.40;99.90;;;;;;6153181;23;20500;-80
2023/04/16 08:46:12;;;;;;;381.97;362.07;;;9.40;99.90;;;;;;6126543;23;20422;-80
2023/04/16 08:48:41;;;;;;;297.37;281.33;;;9.50;99.90;;;;;;6153409;23;20493;-80
2023/04/16 08:51:11;;;;;;;307.77;290.20;;;9.80;99.90;;;;;;6154473;23;20420;-80
2023/04/16 08:53:48;;;;;;;334.03;316.13;;;9.60;99.90;;;;;;6154220;23;20465;-80
2023/04/16 08:56:21;;;;;;;367.97;348.63;;;9.60;99.90;;;;;;6153392;23;20945;-80
2023/04/16 08:58:49;;;;;;;346.27;328.80;;;9.80;99.90;;;;;;6153979;23;20402;-81
2023/04/16 09:01:22;;;;;;;327.17;311.73;;;9.90;99.90;;;;;;6154254;23;20495;-81
2023/04/16 09:03:49;;;;;;;335.00;319.60;;;9.60;99.90;;;;;;6152276;23;20748;-81
2023/04/16 09:06:17;;;;;;;285.20;272.07;;;9.60;99.90;;;;;;6152930;23;20460;-81
2023/04/16 09:08:45;;;;;;;284.20;271.73;;;9.60;99.90;;;;;;6152481;23;20446;-81
2023/04/16 09:11:13;;;;;;;255.70;244.37;;;9.70;99.90;;;;;;6153256;23;20446;-81
2023/04/16 09:13:42;;;;;;;169.80;161.33;;;9.50;99.90;;;;;;6153819;23;20461;-81
2023/04/16 09:16:09;;;;;;;157.90;149.40;;;9.50;99.90;;;;;;6153696;23;20493;-81
2023/04/16 09:18:36;;;;;;;165.33;156.43;;;9.60;99.90;;;;;;6128549;23;20743;-81
2023/04/16 09:21:04;;;;;;;136.67;129.07;;;9.80;99.90;;;;;;6153792;23;20948;-78
2023/04/16 09:23:31;;;;;;;146.73;139.00;;;9.90;99.90;;;;;;6154061;23;20524;-79
2023/04/16 09:26:00;;;;;;;121.33;113.93;;;10.10;99.90;;;;;;6153826;23;20497;-78
2023/04/16 09:29:01;;;;;;;143.13;135.73;;;10.20;99.90;;;;;;6154030;23;20946;-78
2023/04/16 09:31:30;;;;;;;127.37;119.90;;;10.50;99.90;;;;;;6126732;23;20496;-79
2023/04/16 09:34:04;;;;;;;180.70;171.90;;;10.70;99.90;;;;;;6153344;23;20492;-78
2023/04/16 09:36:32;;;;;;;117.00;110.47;;;10.90;99.90;;;;;;6153443;23;20417;-78
2023/04/16 09:39:00;;;;;;;110.73;104.23;;;10.80;99.90;;;;;;6153722;23;20476;-79
2023/04/16 09:41:46;;;;;;;42.40;37.40;;;10.90;99.90;;;;;;6153178;23;20505;-78
2023/04/16 09:44:13;;;;;;;34.43;23.40;;;11.10;99.90;;;;;;6127179;23;20442;-79
2023/04/16 09:46:42;;;;;;;42.77;28.40;;;11.20;99.90;;;;;;6153489;23;20413;-79
2023/04/16 09:49:10;;;;;;;37.67;28.83;;;11.50;99.90;;;;;;6152440;23;20752;-79
2023/04/16 09:51:37;;;;;;;36.80;25.53;;;11.80;99.90;;;;;;6153631;23;20413;-79
2023/04/16 09:54:35;;;;;;;44.40;23.40;;;11.80;99.90;;;;;;6153007;23;20448;-79
2023/04/16 09:57:03;;;;;;;34.90;20.83;;;11.90;99.90;;;;;;6154005;23;20442;-79
2023/04/16 09:59:32;;;;;;;38.03;22.57;;;12.30;99.90;;;;;;6127899;23;20418;-79
2023/04/16 10:02:05;;;;;;;45.10;22.50;;;12.50;99.90;;;;;;6153976;23;20445;-79
2023/04/16 10:05:07;;;;;;;39.50;25.27;;;12.70;99.90;;;;;;6152181;23;20908;-78
2023/04/16 10:07:39;;;;;;;39.50;19.97;;;12.60;99.90;;;;;;6152538;23;20229;-79
2023/04/16 10:10:55;;;;;;;30.80;16.57;;;12.50;99.90;;;;;;6154218;23;20489;-79
2023/04/16 10:26:25;;;;;;;32.40;22.77;;;12.90;99.90;;;;;;6080252;23;20488;-79
2023/04/16 10:36:11;;;;;;;34.30;21.17;;;12.60;99.90;;;;;;5950670;23;20452;-79
2023/04/16 10:41:28;;;;;;;30.60;17.73;;;13.00;99.90;;;;;;6006381;23;20424;-79
2023/04/16 10:44:08;;;;;;;36.23;22.00;;;12.80;99.90;;;;;;6007991;23;20886;-79
2023/04/16 10:47:20;;;;;;;39.40;19.80;;;12.80;99.90;;;;;;5983862;23;20462;-79
2023/04/16 10:49:49;;;;;;;29.93;19.70;;;12.80;99.90;;;;;;5851459;23;20937;-79
2023/04/16 10:55:06;;;;;;;26.80;18.53;;;13.30;99.90;;;;;;6156673;23;20457;-78
2023/04/16 11:00:23;;;;;;;32.63;19.37;;;13.40;99.90;;;;;;6151591;23;20418;-78
2023/04/16 11:03:21;;;;;;;26.33;18.83;;;13.00;99.90;;;;;;6157253;23;20418;-78
2023/04/16 11:05:49;;;;;;;31.67;19.93;;;13.10;99.90;;;;;;6184188;23;20474;-78
2023/04/16 11:08:46;;;;;;;34.57;19.80;;;13.50;99.90;;;;;;6193805;23;20897;-78
2023/04/16 11:11:50;;;;;;;29.53;19.87;;;14.10;99.90;;;;;;6170912;23;20415;-81
2023/04/16 11:15:11;;;;;;;;;;;;;;;;;;;;;
2023/04/16 11:17:39;;;;;;;25.40;17.87;;;15.00;99.90;;;;;;6008110;23;20463;-79
2023/04/16 11:26:31;;;;;;;27.00;15.70;;;14.40;99.90;;;;;;6021536;23;20482;-79
2023/04/16 11:28:59;;;;;;;29.33;16.30;;;14.50;99.90;;;;;;6036465;23;20418;-79
2023/04/16 11:31:26;;;;;;;27.17;15.47;;;14.10;99.90;;;;;;6096209;23;20414;-79
2023/04/16 11:33:55;;;;;;;30.17;20.57;;;13.80;99.90;;;;;;6184876;23;20812;-79
2023/04/16 11:36:22;;;;;;;32.83;19.03;;;13.80;99.90;;;;;;6184756;23;20949;-79
2023/04/16 11:38:50;;;;;;;28.50;18.47;;;13.70;99.90;;;;;;6184853;23;20501;-79
2023/04/16 11:41:21;;;;;;;32.37;19.97;;;14.20;99.40;;;;;;6185252;23;20442;-79
2023/04/16 11:43:48;;;;;;;25.30;17.77;;;14.50;99.20;;;;;;6185026;23;20485;-79
2023/04/16 11:46:15;;;;;;;31.63;20.77;;;14.80;96.30;;;;;;6184145;23;20442;-79
2023/04/16 11:48:49;;;;;;;26.10;18.70;;;14.80;95.90;;;;;;6184837;23;20416;-79
2023/04/16 11:51:17;;;;;;;23.73;17.77;;;15.00;95.00;;;;;;6158689;23;20421;-79
2023/04/16 11:53:51;;;;;;;19.33;11.37;;;15.10;96.90;;;;;;6184713;23;20439;-79
2023/04/16 12:02:44;;;;;;;27.93;18.80;;;14.20;99.40;;;;;;6071633;23;20434;-78
2023/04/16 12:05:29;;;;;;;20.90;16.20;;;14.50;98.90;;;;;;6179306;23;20440;-78
2023/04/16 12:07:56;;;;;;;20.57;13.00;;;14.50;94.70;;;;;;6183977;23;20403;-79
2023/04/16 12:10:26;;;;;;;23.00;15.37;;;14.60;94.30;;;;;;6184581;23;20470;-78
2023/04/16 12:12:53;;;;;;;20.93;9.37;;;14.70;92.90;;;;;;6184240;23;20912;-78
2023/04/16 12:24:58;;;;;;;21.47;15.27;;;14.30;92.70;;;;;;6120002;23;20442;-78
2023/04/16 12:27:27;;;;;;;23.47;17.40;;;14.40;92.80;;;;;;6122371;23;20398;-78
2023/04/16 12:30:10;;;;;;;22.87;17.10;;;14.50;92.80;;;;;;6151683;23;20414;-79
2023/04/16 12:32:37;;;;;;;29.27;18.40;;;14.50;92.80;;;;;;6184252;23;20397;-80
2023/04/16 12:35:08;;;;;;;26.03;18.80;;;14.70;92.90;;;;;;6184520;23;20416;-79
2023/04/16 12:37:35;;;;;;;24.37;16.70;;;14.70;93.20;;;;;;6183990;23;20468;-79
2023/04/16 12:40:03;;;;;;;21.77;14.20;;;14.70;91.80;;;;;;6184811;23;20465;-78
2023/04/16 12:42:34;;;;;;;26.80;18.17;;;14.80;91.80;;;;;;6184111;23;20413;-79
2023/04/16 12:45:02;;;;;;;27.60;17.50;;;14.90;91.50;;;;;;6183090;23;20430;-78
2023/04/16 12:47:29;;;;;;;18.27;12.67;;;15.10;93.10;;;;;;6181915;23;20421;-79
2023/04/16 12:49:57;;;;;;;23.97;16.20;;;14.90;90.80;;;;;;6184160;23;20418;-79
2023/04/16 12:52:24;;;;;;;27.53;17.57;;;14.90;90.90;;;;;;6184442;23;20419;-79
2023/04/16 12:54:51;;;;;;;19.20;13.80;;;15.00;92.20;;;;;;6184281;23;20433;-79
2023/04/16 12:57:18;;;;;;;22.87;16.90;;;14.90;89.30;;;;;;6184068;23;20450;-79
2023/04/16 12:59:46;;;;;;;24.60;16.53;;;14.80;92.80;;;;;;6183861;23;20448;-79
2023/04/16 13:02:13;;;;;;;29.83;18.60;;;14.90;93.00;;;;;;6183108;23;20425;-79
2023/04/16 13:04:40;;;;;;;26.07;17.70;;;14.70;92.90;;;;;;6182006;23;20522;-79
2023/04/16 13:07:07;;;;;;;24.90;18.00;;;14.60;94.20;;;;;;6183168;23;20525;-79
2023/04/16 13:09:34;;;;;;;28.57;17.17;;;14.40;94.90;;;;;;6183680;23;20735;-79
2023/04/16 13:12:01;;;;;;;23.17;14.03;;;14.20;93.30;;;;;;6184255;23;20414;-79
2023/04/16 13:14:27;;;;;;;25.53;18.10;;;14.00;93.20;;;;;;6183736;23;20434;-79
2023/04/16 13:17:00;;;;;;;30.07;20.47;;;13.90;92.60;;;;;;6183474;23;20409;-79
2023/04/16 13:19:27;;;;;;;25.60;18.40;;;13.80;93.80;;;;;;6183144;23;20420;-79
2023/04/16 13:21:54;;;;;;;30.17;20.40;;;13.80;95.20;;;;;;6183991;23;20471;-80
2023/04/16 13:24:22;;;;;;;31.13;20.13;;;13.70;95.30;;;;;;6184062;23;20455;-79
2023/04/16 13:26:49;;;;;;;26.73;19.13;;;13.70;95.70;;;;;;6193163;23;20472;-79
2023/04/16 13:29:16;;;;;;;23.87;15.97;;;13.70;95.50;;;;;;6181968;23;20504;-79
2023/04/16 13:31:43;;;;;;;28.10;19.37;;;13.80;95.70;;;;;;6183831;23;20496;-79
2023/04/16 13:34:12;;;;;;;26.37;19.40;;;13.90;95.30;;;;;;6183734;23;20472;-78
2023/04/16 13:36:39;;;;;;;27.97;21.30;;;13.80;94.30;;;;;;6183480;23;20409;-79
2023/04/16 13:39:10;;;;;;;24.60;18.93;;;13.90;95.90;;;;;;6184186;23;20737;-79
2023/04/16 13:41:37;;;;;;;31.03;16.63;;;13.90;94.40;;;;;;6157328;23;20948;-79
2023/04/16 13:44:04;;;;;;;22.50;14.83;;;14.10;92.70;;;;;;6183331;23;20433;-79
2023/04/16 13:46:31;;;;;;;24.07;17.43;;;14.10;93.60;;;;;;6182188;23;20942;-79
2023/04/16 13:48:58;;;;;;;27.53;18.13;;;14.00;92.60;;;;;;6183653;23;20919;-79
2023/04/16 13:51:27;;;;;;;22.63;11.87;;;14.20;93.60;;;;;;6184016;23;20740;-79
2023/04/16 13:53:54;;;;;;;20.30;14.23;;;14.20;92.70;;;;;;6183328;23;20938;-79
2023/04/16 13:56:21;;;;;;;18.43;12.37;;;14.10;92.50;;;;;;6158411;23;20409;-79
2023/04/16 13:58:49;;;;;;;21.30;12.57;;;14.30;90.70;;;;;;6185654;23;20417;-79
2023/04/16 14:01:16;;;;;;;24.70;17.20;;;14.30;91.50;;;;;;6185493;23;20960;-79
2023/04/16 14:03:43;;;;;;;23.70;17.27;;;14.50;92.80;;;;;;6184558;23;20445;-79
2023/04/16 14:06:09;;;;;;;24.90;14.73;;;14.60;92.90;;;;;;6184442;23;20523;-80
2023/04/16 14:08:38;;;;;;;21.53;14.57;;;14.70;90.50;;;;;;6185532;23;20468;-79
2023/04/16 14:11:05;;;;;;;23.23;17.40;;;14.60;92.30;;;;;;6185288;23;20485;-79
2023/04/16 14:13:33;;;;;;;21.50;16.37;;;14.70;92.70;;;;;;6185462;23;20433;-80
2023/04/16 14:16:00;;;;;;;21.07;15.10;;;14.80;91.30;;;;;;6185439;23;20416;-79
2023/04/16 14:18:27;;;;;;;24.90;14.90;;;14.90;93.00;;;;;;6185444;23;20413;-79
2023/04/16 14:20:54;;;;;;;21.83;14.90;;;15.00;92.10;;;;;;6184296;23;20414;-79
2023/04/16 14:23:21;;;;;;;24.30;15.83;;;15.30;92.10;;;;;;6184337;23;20798;-79
2023/04/16 14:25:50;;;;;;;25.00;14.87;;;15.50;91.80;;;;;;6185218;23;20443;-79
2023/04/16 14:28:17;;;;;;;19.73;12.77;;;15.70;87.20;;;;;;6183778;23;20503;-79